Adamsville, Alabama
Current Conditions -  °F | °C
As of 7:53 AM on Sunday 25 Jan 2015 (Local Time) from KBHM Reporting Station
Few Clouds Few Clouds  
Wind Chill: 39°   Ceiling: Unl
Heat Index: 39°   Visibility: 10mi
Dew Point: 33°   Wind: 3mph
Humidity: 79%   Direction: 190°S
Pressure: 29.95"   Gusts: NA
Location:  33.6°N, 86.96°W
Report Text: KBHM 251353Z 19003KT 10SM FEW250 04/01 A2995 RMK AO2 SLP144 T00390006
Loading
Personal Weather Stations






























Interactive Weather Map New forecast layout! Learn more

10-Day Weather Forecast

Advertisements
Track Severe Weather on mobile